Aviation Digital Data Service (ADDS)

Output produced by METARs form (0135 UTC 23 November 2017)
found at http://www.aviationweather.gov/adds/metars/
 
TAF HADR 221530Z 2218/2324 36005KT C A V O K 
     BECMG 2306/2310 18003KT
       
HAAB 230100Z 08006KT 9999 FEW025 FEW070 11/05 Q1024
TAF HAAB 221530Z 2218/2324 04006KT 9999 SCT025 
     BECMG 2309/2312 12008KT SCT023 
     BECMG 2316/2320 09007KT 
     TEMPO 2306/2310 8000 HZ